sensor_id;sensor_type;location;lat;lon;timestamp;P1;durP1;ratioP1;P2;durP2;ratioP2
8252;SDS011;61313;48.396;10.008;2024-01-11T00:00:04;46.33;;;27.93;;
8252;SDS011;61313;48.396;10.008;2024-01-11T00:02:30;36.87;;;25.30;;
8252;SDS011;61313;48.396;10.008;2024-01-11T00:04:55;47.00;;;24.30;;
8252;SDS011;61313;48.396;10.008;2024-01-11T00:07:21;45.33;;;24.87;;
8252;SDS011;61313;48.396;10.008;2024-01-11T00:09:46;50.43;;;26.10;;
8252;SDS011;61313;48.396;10.008;2024-01-11T00:12:11;42.23;;;24.33;;
8252;SDS011;61313;48.396;10.008;2024-01-11T00:14:37;47.70;;;26.47;;
8252;SDS011;61313;48.396;10.008;2024-01-11T00:17:02;48.53;;;26.50;;
8252;SDS011;61313;48.396;10.008;2024-01-11T00:19:28;49.20;;;26.00;;
8252;SDS011;61313;48.396;10.008;2024-01-11T00:21:53;44.83;;;25.33;;
8252;SDS011;61313;48.396;10.008;2024-01-11T00:24:18;47.23;;;25.50;;
8252;SDS011;61313;48.396;10.008;2024-01-11T00:26:44;45.77;;;27.03;;
8252;SDS011;61313;48.396;10.008;2024-01-11T00:29:09;46.90;;;25.03;;
8252;SDS011;61313;48.396;10.008;2024-01-11T00:31:35;44.83;;;25.33;;
8252;SDS011;61313;48.396;10.008;2024-01-11T00:34:00;46.80;;;26.63;;
8252;SDS011;61313;48.396;10.008;2024-01-11T00:36:26;45.60;;;25.33;;
8252;SDS011;61313;48.396;10.008;2024-01-11T00:38:53;52.33;;;27.43;;
8252;SDS011;61313;48.396;10.008;2024-01-11T00:41:18;48.30;;;26.27;;
8252;SDS011;61313;48.396;10.008;2024-01-11T00:43:44;51.53;;;28.80;;
8252;SDS011;61313;48.396;10.008;2024-01-11T00:46:09;51.63;;;29.20;;
8252;SDS011;61313;48.396;10.008;2024-01-11T00:48:34;48.47;;;27.70;;
8252;SDS011;61313;48.396;10.008;2024-01-11T00:51:00;52.63;;;26.13;;
8252;SDS011;61313;48.396;10.008;2024-01-11T00:53:25;49.00;;;28.93;;
8252;SDS011;61313;48.396;10.008;2024-01-11T00:55:55;51.90;;;25.60;;
8252;SDS011;61313;48.396;10.008;2024-01-11T00:58:21;49.73;;;26.23;;
8252;SDS011;61313;48.396;10.008;2024-01-11T01:00:46;48.33;;;26.87;;
8252;SDS011;61313;48.396;10.008;2024-01-11T01:03:11;48.37;;;24.40;;
8252;SDS011;61313;48.396;10.008;2024-01-11T01:05:37;46.30;;;27.23;;
8252;SDS011;61313;48.396;10.008;2024-01-11T01:08:02;53.57;;;26.03;;
8252;SDS011;61313;48.396;10.008;2024-01-11T01:10:28;51.83;;;26.57;;
8252;SDS011;61313;48.396;10.008;2024-01-11T01:12:53;56.63;;;26.43;;
8252;SDS011;61313;48.396;10.008;2024-01-11T01:15:19;51.43;;;27.07;;
8252;SDS011;61313;48.396;10.008;2024-01-11T01:17:44;47.53;;;26.87;;
8252;SDS011;61313;48.396;10.008;2024-01-11T01:20:10;59.93;;;26.70;;
8252;SDS011;61313;48.396;10.008;2024-01-11T01:22:36;55.70;;;27.60;;
8252;SDS011;61313;48.396;10.008;2024-01-11T01:25:01;51.67;;;26.37;;
8252;SDS011;61313;48.396;10.008;2024-01-11T01:27:27;53.13;;;27.57;;
8252;SDS011;61313;48.396;10.008;2024-01-11T01:29:52;47.90;;;27.37;;
8252;SDS011;61313;48.396;10.008;2024-01-11T01:32:17;55.80;;;27.70;;
8252;SDS011;61313;48.396;10.008;2024-01-11T01:34:43;49.63;;;27.80;;
8252;SDS011;61313;48.396;10.008;2024-01-11T01:37:08;53.27;;;28.30;;
8252;SDS011;61313;48.396;10.008;2024-01-11T01:39:37;50.90;;;26.20;;
8252;SDS011;61313;48.396;10.008;2024-01-11T01:42:03;51.80;;;25.37;;
8252;SDS011;61313;48.396;10.008;2024-01-11T01:44:29;50.10;;;25.33;;
8252;SDS011;61313;48.396;10.008;2024-01-11T01:46:55;44.33;;;25.87;;
8252;SDS011;61313;48.396;10.008;2024-01-11T01:49:20;45.17;;;22.80;;
8252;SDS011;61313;48.396;10.008;2024-01-11T01:51:47;52.77;;;25.60;;
8252;SDS011;61313;48.396;10.008;2024-01-11T01:54:13;52.67;;;26.80;;
8252;SDS011;61313;48.396;10.008;2024-01-11T01:56:39;47.83;;;25.80;;
8252;SDS011;61313;48.396;10.008;2024-01-11T01:59:05;48.50;;;24.80;;
8252;SDS011;61313;48.396;10.008;2024-01-11T02:01:31;45.83;;;24.40;;
8252;SDS011;61313;48.396;10.008;2024-01-11T02:03:57;47.50;;;24.53;;
8252;SDS011;61313;48.396;10.008;2024-01-11T02:06:24;49.13;;;24.60;;
8252;SDS011;61313;48.396;10.008;2024-01-11T02:08:54;49.17;;;24.97;;
8252;SDS011;61313;48.396;10.008;2024-01-11T02:11:21;39.53;;;23.30;;
8252;SDS011;61313;48.396;10.008;2024-01-11T02:13:48;50.93;;;25.33;;
8252;SDS011;61313;48.396;10.008;2024-01-11T02:16:15;43.97;;;22.70;;
8252;SDS011;61313;48.396;10.008;2024-01-11T02:18:40;53.23;;;23.97;;
8252;SDS011;61313;48.396;10.008;2024-01-11T02:21:06;46.70;;;21.70;;
8252;SDS011;61313;48.396;10.008;2024-01-11T02:23:34;51.10;;;26.07;;
8252;SDS011;61313;48.396;10.008;2024-01-11T02:26:06;45.23;;;23.93;;
8252;SDS011;61313;48.396;10.008;2024-01-11T02:28:31;43.80;;;22.97;;
8252;SDS011;61313;48.396;10.008;2024-01-11T02:30:57;53.03;;;23.27;;
8252;SDS011;61313;48.396;10.008;2024-01-11T02:33:22;42.03;;;22.60;;
8252;SDS011;61313;48.396;10.008;2024-01-11T02:35:48;50.93;;;22.20;;
8252;SDS011;61313;48.396;10.008;2024-01-11T02:38:14;39.70;;;21.27;;
8252;SDS011;61313;48.396;10.008;2024-01-11T02:40:39;47.77;;;22.53;;
8252;SDS011;61313;48.396;10.008;2024-01-11T02:43:11;35.40;;;20.60;;
8252;SDS011;61313;48.396;10.008;2024-01-11T02:45:36;44.00;;;20.17;;
8252;SDS011;61313;48.396;10.008;2024-01-11T02:48:02;43.47;;;23.60;;
8252;SDS011;61313;48.396;10.008;2024-01-11T02:50:28;42.60;;;21.53;;
8252;SDS011;61313;48.396;10.008;2024-01-11T02:52:53;40.27;;;22.37;;
8252;SDS011;61313;48.396;10.008;2024-01-11T02:55:18;47.43;;;20.93;;
8252;SDS011;61313;48.396;10.008;2024-01-11T02:57:44;45.83;;;21.23;;
8252;SDS011;61313;48.396;10.008;2024-01-11T03:00:09;45.23;;;21.40;;
8252;SDS011;61313;48.396;10.008;2024-01-11T03:02:36;41.47;;;22.43;;
8252;SDS011;61313;48.396;10.008;2024-01-11T03:05:03;54.07;;;25.50;;
8252;SDS011;61313;48.396;10.008;2024-01-11T03:07:28;40.93;;;22.87;;
8252;SDS011;61313;48.396;10.008;2024-01-11T03:09:55;44.27;;;21.33;;
8252;SDS011;61313;48.396;10.008;2024-01-11T03:12:21;46.20;;;22.60;;
8252;SDS011;61313;48.396;10.008;2024-01-11T03:14:47;52.80;;;24.80;;
8252;SDS011;61313;48.396;10.008;2024-01-11T03:17:12;50.97;;;23.37;;
8252;SDS011;61313;48.396;10.008;2024-01-11T03:19:41;49.80;;;23.80;;
8252;SDS011;61313;48.396;10.008;2024-01-11T03:22:06;51.40;;;23.70;;
8252;SDS011;61313;48.396;10.008;2024-01-11T03:24:32;52.57;;;26.63;;
8252;SDS011;61313;48.396;10.008;2024-01-11T03:26:58;45.40;;;25.13;;
8252;SDS011;61313;48.396;10.008;2024-01-11T03:29:23;45.60;;;23.60;;
8252;SDS011;61313;48.396;10.008;2024-01-11T03:31:49;47.10;;;25.50;;
8252;SDS011;61313;48.396;10.008;2024-01-11T03:34:14;52.00;;;26.60;;
8252;SDS011;61313;48.396;10.008;2024-01-11T03:36:39;48.60;;;25.67;;
8252;SDS011;61313;48.396;10.008;2024-01-11T03:39:05;45.30;;;24.70;;
8252;SDS011;61313;48.396;10.008;2024-01-11T03:41:31;52.67;;;24.37;;
8252;SDS011;61313;48.396;10.008;2024-01-11T03:43:56;49.57;;;24.13;;
8252;SDS011;61313;48.396;10.008;2024-01-11T03:46:22;45.37;;;23.90;;
8252;SDS011;61313;48.396;10.008;2024-01-11T03:48:47;54.40;;;23.77;;
8252;SDS011;61313;48.396;10.008;2024-01-11T03:51:13;49.40;;;25.07;;
8252;SDS011;61313;48.396;10.008;2024-01-11T03:53:38;55.60;;;23.67;;
8252;SDS011;61313;48.396;10.008;2024-01-11T03:56:04;50.13;;;24.60;;
8252;SDS011;61313;48.396;10.008;2024-01-11T03:58:29;39.67;;;21.47;;
8252;SDS011;61313;48.396;10.008;2024-01-11T04:00:55;47.43;;;24.50;;
8252;SDS011;61313;48.396;10.008;2024-01-11T04:03:20;48.03;;;24.70;;
8252;SDS011;61313;48.396;10.008;2024-01-11T04:05:46;49.07;;;24.70;;
8252;SDS011;61313;48.396;10.008;2024-01-11T04:08:11;49.13;;;25.17;;
8252;SDS011;61313;48.396;10.008;2024-01-11T04:10:37;46.10;;;24.70;;
8252;SDS011;61313;48.396;10.008;2024-01-11T04:13:02;54.67;;;26.50;;
8252;SDS011;61313;48.396;10.008;2024-01-11T04:15:27;52.60;;;25.73;;
8252;SDS011;61313;48.396;10.008;2024-01-11T04:17:53;45.43;;;24.97;;
8252;SDS011;61313;48.396;10.008;2024-01-11T04:20:18;46.40;;;25.83;;
8252;SDS011;61313;48.396;10.008;2024-01-11T04:22:44;45.80;;;26.00;;
8252;SDS011;61313;48.396;10.008;2024-01-11T04:25:09;48.47;;;24.80;;
8252;SDS011;61313;48.396;10.008;2024-01-11T04:27:35;55.40;;;27.43;;
8252;SDS011;61313;48.396;10.008;2024-01-11T04:30:00;51.30;;;25.70;;
8252;SDS011;61313;48.396;10.008;2024-01-11T04:32:25;55.97;;;28.07;;
8252;SDS011;61313;48.396;10.008;2024-01-11T04:34:51;55.27;;;27.80;;
8252;SDS011;61313;48.396;10.008;2024-01-11T04:37:16;51.20;;;27.23;;
8252;SDS011;61313;48.396;10.008;2024-01-11T04:39:42;50.27;;;26.57;;
8252;SDS011;61313;48.396;10.008;2024-01-11T04:42:07;49.33;;;27.43;;
8252;SDS011;61313;48.396;10.008;2024-01-11T04:44:33;61.43;;;27.60;;
8252;SDS011;61313;48.396;10.008;2024-01-11T04:46:58;51.17;;;25.90;;
8252;SDS011;61313;48.396;10.008;2024-01-11T04:49:24;54.30;;;27.00;;
8252;SDS011;61313;48.396;10.008;2024-01-11T04:51:49;58.40;;;29.20;;
8252;SDS011;61313;48.396;10.008;2024-01-11T04:54:14;59.43;;;27.13;;
8252;SDS011;61313;48.396;10.008;2024-01-11T04:56:40;50.93;;;25.10;;
8252;SDS011;61313;48.396;10.008;2024-01-11T04:59:05;54.70;;;25.60;;
8252;SDS011;61313;48.396;10.008;2024-01-11T05:01:30;55.70;;;28.63;;
8252;SDS011;61313;48.396;10.008;2024-01-11T05:03:56;53.90;;;24.50;;
8252;SDS011;61313;48.396;10.008;2024-01-11T05:06:21;49.17;;;25.90;;
8252;SDS011;61313;48.396;10.008;2024-01-11T05:08:48;48.33;;;26.10;;
8252;SDS011;61313;48.396;10.008;2024-01-11T05:11:18;54.30;;;26.37;;
8252;SDS011;61313;48.396;10.008;2024-01-11T05:13:48;59.50;;;28.37;;
8252;SDS011;61313;48.396;10.008;2024-01-11T05:18:49;49.27;;;25.80;;
8252;SDS011;61313;48.396;10.008;2024-01-11T05:21:18;54.80;;;27.33;;
8252;SDS011;61313;48.396;10.008;2024-01-11T05:23:44;57.97;;;26.57;;
8252;SDS011;61313;48.396;10.008;2024-01-11T05:26:09;49.13;;;26.30;;
8252;SDS011;61313;48.396;10.008;2024-01-11T05:28:35;49.50;;;25.67;;
8252;SDS011;61313;48.396;10.008;2024-01-11T05:31:03;54.70;;;25.90;;
8252;SDS011;61313;48.396;10.008;2024-01-11T05:33:31;56.50;;;26.77;;
8252;SDS011;61313;48.396;10.008;2024-01-11T05:35:56;45.93;;;25.83;;
8252;SDS011;61313;48.396;10.008;2024-01-11T05:38:22;55.97;;;29.17;;
8252;SDS011;61313;48.396;10.008;2024-01-11T05:40:47;58.53;;;26.93;;
8252;SDS011;61313;48.396;10.008;2024-01-11T05:43:12;61.17;;;28.83;;
8252;SDS011;61313;48.396;10.008;2024-01-11T05:45:38;47.97;;;27.73;;
8252;SDS011;61313;48.396;10.008;2024-01-11T05:48:03;48.50;;;25.63;;
8252;SDS011;61313;48.396;10.008;2024-01-11T05:50:30;52.50;;;27.57;;
8252;SDS011;61313;48.396;10.008;2024-01-11T05:52:56;56.40;;;28.10;;
8252;SDS011;61313;48.396;10.008;2024-01-11T05:55:21;51.33;;;28.30;;
8252;SDS011;61313;48.396;10.008;2024-01-11T05:57:47;56.13;;;27.87;;
8252;SDS011;61313;48.396;10.008;2024-01-11T06:00:13;52.83;;;28.00;;
8252;SDS011;61313;48.396;10.008;2024-01-11T06:02:39;56.00;;;28.03;;
8252;SDS011;61313;48.396;10.008;2024-01-11T06:05:08;54.47;;;29.37;;
8252;SDS011;61313;48.396;10.008;2024-01-11T06:07:33;66.37;;;31.87;;
8252;SDS011;61313;48.396;10.008;2024-01-11T06:09:59;50.97;;;26.30;;
8252;SDS011;61313;48.396;10.008;2024-01-11T06:12:26;63.40;;;27.37;;
8252;SDS011;61313;48.396;10.008;2024-01-11T06:14:51;55.83;;;27.53;;
8252;SDS011;61313;48.396;10.008;2024-01-11T06:17:17;52.57;;;26.73;;
8252;SDS011;61313;48.396;10.008;2024-01-11T06:19:42;59.30;;;29.83;;
8252;SDS011;61313;48.396;10.008;2024-01-11T06:22:07;60.80;;;27.90;;
8252;SDS011;61313;48.396;10.008;2024-01-11T06:24:33;68.37;;;29.23;;
8252;SDS011;61313;48.396;10.008;2024-01-11T06:26:58;54.73;;;27.63;;
8252;SDS011;61313;48.396;10.008;2024-01-11T06:29:24;54.80;;;28.00;;
8252;SDS011;61313;48.396;10.008;2024-01-11T06:31:49;61.47;;;28.77;;
8252;SDS011;61313;48.396;10.008;2024-01-11T06:34:15;52.67;;;28.33;;
8252;SDS011;61313;48.396;10.008;2024-01-11T06:36:40;56.60;;;27.27;;
8252;SDS011;61313;48.396;10.008;2024-01-11T06:39:05;55.27;;;28.87;;
8252;SDS011;61313;48.396;10.008;2024-01-11T06:41:31;69.13;;;31.20;;
8252;SDS011;61313;48.396;10.008;2024-01-11T06:43:56;57.07;;;26.53;;
8252;SDS011;61313;48.396;10.008;2024-01-11T06:46:22;57.07;;;31.70;;
8252;SDS011;61313;48.396;10.008;2024-01-11T06:48:48;65.73;;;31.17;;
8252;SDS011;61313;48.396;10.008;2024-01-11T06:51:20;51.70;;;29.67;;
8252;SDS011;61313;48.396;10.008;2024-01-11T06:53:45;53.57;;;28.60;;
8252;SDS011;61313;48.396;10.008;2024-01-11T06:56:14;63.23;;;31.13;;
8252;SDS011;61313;48.396;10.008;2024-01-11T06:58:44;56.60;;;31.67;;
8252;SDS011;61313;48.396;10.008;2024-01-11T07:01:10;55.33;;;29.87;;
8252;SDS011;61313;48.396;10.008;2024-01-11T07:03:36;56.83;;;30.90;;
8252;SDS011;61313;48.396;10.008;2024-01-11T07:06:01;52.23;;;30.10;;
8252;SDS011;61313;48.396;10.008;2024-01-11T07:08:28;55.30;;;29.53;;
8252;SDS011;61313;48.396;10.008;2024-01-11T07:10:53;59.20;;;30.60;;
8252;SDS011;61313;48.396;10.008;2024-01-11T07:13:19;64.65;;;30.60;;
8252;SDS011;61313;48.396;10.008;2024-01-11T07:15:44;56.53;;;30.57;;
8252;SDS011;61313;48.396;10.008;2024-01-11T07:18:10;65.27;;;34.17;;
8252;SDS011;61313;48.396;10.008;2024-01-11T07:20:35;62.43;;;29.63;;
8252;SDS011;61313;48.396;10.008;2024-01-11T07:23:00;65.73;;;35.10;;
8252;SDS011;61313;48.396;10.008;2024-01-11T07:25:26;64.70;;;32.10;;
8252;SDS011;61313;48.396;10.008;2024-01-11T07:27:51;64.27;;;33.00;;
8252;SDS011;61313;48.396;10.008;2024-01-11T07:30:17;58.90;;;29.33;;
8252;SDS011;61313;48.396;10.008;2024-01-11T07:32:45;65.77;;;33.13;;
8252;SDS011;61313;48.396;10.008;2024-01-11T07:35:11;65.50;;;33.83;;
8252;SDS011;61313;48.396;10.008;2024-01-11T07:37:37;66.80;;;34.50;;
8252;SDS011;61313;48.396;10.008;2024-01-11T07:40:03;65.20;;;30.60;;
8252;SDS011;61313;48.396;10.008;2024-01-11T07:42:29;63.37;;;30.53;;
8252;SDS011;61313;48.396;10.008;2024-01-11T07:44:54;54.67;;;28.33;;
8252;SDS011;61313;48.396;10.008;2024-01-11T07:47:22;55.30;;;31.70;;
8252;SDS011;61313;48.396;10.008;2024-01-11T07:49:49;72.33;;;34.10;;
8252;SDS011;61313;48.396;10.008;2024-01-11T07:52:14;62.37;;;29.87;;
8252;SDS011;61313;48.396;10.008;2024-01-11T07:54:40;61.53;;;30.57;;
8252;SDS011;61313;48.396;10.008;2024-01-11T07:57:05;71.33;;;34.60;;
8252;SDS011;61313;48.396;10.008;2024-01-11T07:59:33;59.83;;;33.30;;
8252;SDS011;61313;48.396;10.008;2024-01-11T08:02:01;63.10;;;31.80;;
8252;SDS011;61313;48.396;10.008;2024-01-11T08:04:26;66.03;;;31.40;;
8252;SDS011;61313;48.396;10.008;2024-01-11T08:06:52;56.17;;;29.10;;
8252;SDS011;61313;48.396;10.008;2024-01-11T08:09:17;63.40;;;31.50;;
8252;SDS011;61313;48.396;10.008;2024-01-11T08:11:43;53.77;;;30.43;;
8252;SDS011;61313;48.396;10.008;2024-01-11T08:14:09;66.87;;;32.60;;
8252;SDS011;61313;48.396;10.008;2024-01-11T08:16:34;52.60;;;30.50;;
8252;SDS011;61313;48.396;10.008;2024-01-11T08:19:00;70.17;;;31.17;;
8252;SDS011;61313;48.396;10.008;2024-01-11T08:21:26;52.77;;;28.47;;
8252;SDS011;61313;48.396;10.008;2024-01-11T08:23:51;54.80;;;28.50;;
8252;SDS011;61313;48.396;10.008;2024-01-11T08:26:17;57.00;;;28.93;;
8252;SDS011;61313;48.396;10.008;2024-01-11T08:28:47;70.33;;;32.77;;
8252;SDS011;61313;48.396;10.008;2024-01-11T08:31:13;73.03;;;31.67;;
8252;SDS011;61313;48.396;10.008;2024-01-11T08:33:38;78.30;;;34.23;;
8252;SDS011;61313;48.396;10.008;2024-01-11T08:36:04;71.27;;;28.83;;
8252;SDS011;61313;48.396;10.008;2024-01-11T08:38:30;68.17;;;29.00;;
8252;SDS011;61313;48.396;10.008;2024-01-11T08:40:55;53.43;;;28.47;;
8252;SDS011;61313;48.396;10.008;2024-01-11T08:43:21;59.63;;;31.80;;
8252;SDS011;61313;48.396;10.008;2024-01-11T08:45:46;56.90;;;31.67;;
8252;SDS011;61313;48.396;10.008;2024-01-11T08:48:14;58.33;;;29.60;;
8252;SDS011;61313;48.396;10.008;2024-01-11T08:50:40;59.27;;;30.00;;
8252;SDS011;61313;48.396;10.008;2024-01-11T08:53:06;53.27;;;30.50;;
8252;SDS011;61313;48.396;10.008;2024-01-11T08:55:31;47.53;;;28.10;;
8252;SDS011;61313;48.396;10.008;2024-01-11T08:57:57;50.67;;;28.73;;
8252;SDS011;61313;48.396;10.008;2024-01-11T09:00:23;55.40;;;30.13;;
8252;SDS011;61313;48.396;10.008;2024-01-11T09:02:48;58.70;;;29.80;;
8252;SDS011;61313;48.396;10.008;2024-01-11T09:05:14;56.73;;;32.00;;
8252;SDS011;61313;48.396;10.008;2024-01-11T09:07:40;59.13;;;28.03;;
8252;SDS011;61313;48.396;10.008;2024-01-11T09:10:06;49.70;;;28.60;;
8252;SDS011;61313;48.396;10.008;2024-01-11T09:12:33;54.60;;;29.27;;
8252;SDS011;61313;48.396;10.008;2024-01-11T09:15:00;70.17;;;30.83;;
8252;SDS011;61313;48.396;10.008;2024-01-11T09:17:25;59.30;;;30.87;;
8252;SDS011;61313;48.396;10.008;2024-01-11T09:19:51;61.30;;;32.60;;
8252;SDS011;61313;48.396;10.008;2024-01-11T09:22:16;56.60;;;30.93;;
8252;SDS011;61313;48.396;10.008;2024-01-11T09:24:42;57.70;;;32.37;;
8252;SDS011;61313;48.396;10.008;2024-01-11T09:27:08;49.57;;;28.03;;
8252;SDS011;61313;48.396;10.008;2024-01-11T09:29:33;62.53;;;33.27;;
8252;SDS011;61313;48.396;10.008;2024-01-11T09:31:59;58.13;;;32.03;;
8252;SDS011;61313;48.396;10.008;2024-01-11T09:34:24;64.30;;;31.00;;
8252;SDS011;61313;48.396;10.008;2024-01-11T09:36:50;57.83;;;30.73;;
8252;SDS011;61313;48.396;10.008;2024-01-11T09:39:15;54.03;;;30.57;;
8252;SDS011;61313;48.396;10.008;2024-01-11T09:41:42;61.87;;;32.00;;
8252;SDS011;61313;48.396;10.008;2024-01-11T09:44:38;53.43;;;28.80;;
8252;SDS011;61313;48.396;10.008;2024-01-11T09:47:05;69.50;;;30.20;;
8252;SDS011;61313;48.396;10.008;2024-01-11T09:49:33;65.90;;;32.13;;
8252;SDS011;61313;48.396;10.008;2024-01-11T09:52:00;62.00;;;34.50;;
8252;SDS011;61313;48.396;10.008;2024-01-11T09:54:27;56.23;;;30.27;;
8252;SDS011;61313;48.396;10.008;2024-01-11T09:56:53;54.30;;;30.57;;
8252;SDS011;61313;48.396;10.008;2024-01-11T09:59:22;53.27;;;31.00;;
8252;SDS011;61313;48.396;10.008;2024-01-11T10:01:49;54.40;;;29.23;;
8252;SDS011;61313;48.396;10.008;2024-01-11T10:04:16;58.60;;;32.63;;
8252;SDS011;61313;48.396;10.008;2024-01-11T10:06:41;63.47;;;30.60;;
8252;SDS011;61313;48.396;10.008;2024-01-11T10:09:07;65.67;;;34.77;;
8252;SDS011;61313;48.396;10.008;2024-01-11T10:11:33;56.70;;;33.27;;
8252;SDS011;61313;48.396;10.008;2024-01-11T10:13:59;60.60;;;33.70;;
8252;SDS011;61313;48.396;10.008;2024-01-11T10:16:27;71.00;;;33.57;;
8252;SDS011;61313;48.396;10.008;2024-01-11T10:18:54;66.00;;;32.83;;
8252;SDS011;61313;48.396;10.008;2024-01-11T10:21:20;60.03;;;33.07;;
8252;SDS011;61313;48.396;10.008;2024-01-11T10:23:45;60.70;;;31.87;;
8252;SDS011;61313;48.396;10.008;2024-01-11T10:26:11;60.50;;;33.10;;
8252;SDS011;61313;48.396;10.008;2024-01-11T10:28:36;64.50;;;31.53;;
8252;SDS011;61313;48.396;10.008;2024-01-11T10:31:03;61.73;;;33.90;;
8252;SDS011;61313;48.396;10.008;2024-01-11T10:33:30;67.77;;;32.83;;
8252;SDS011;61313;48.396;10.008;2024-01-11T10:35:55;72.27;;;33.10;;
8252;SDS011;61313;48.396;10.008;2024-01-11T10:38:21;56.03;;;33.47;;
8252;SDS011;61313;48.396;10.008;2024-01-11T10:40:50;57.57;;;32.17;;
8252;SDS011;61313;48.396;10.008;2024-01-11T10:43:21;58.97;;;30.90;;
8252;SDS011;61313;48.396;10.008;2024-01-11T10:45:50;51.23;;;30.40;;
8252;SDS011;61313;48.396;10.008;2024-01-11T10:48:19;65.93;;;31.90;;
8252;SDS011;61313;48.396;10.008;2024-01-11T10:50:47;57.40;;;29.87;;
8252;SDS011;61313;48.396;10.008;2024-01-11T10:55:54;61.20;;;31.87;;
8252;SDS011;61313;48.396;10.008;2024-01-11T10:58:24;57.70;;;32.87;;
8252;SDS011;61313;48.396;10.008;2024-01-11T11:00:51;73.37;;;35.60;;
8252;SDS011;61313;48.396;10.008;2024-01-11T11:03:19;55.43;;;31.93;;
8252;SDS011;61313;48.396;10.008;2024-01-11T11:05:45;58.43;;;29.97;;
8252;SDS011;61313;48.396;10.008;2024-01-11T11:08:13;62.80;;;32.13;;
8252;SDS011;61313;48.396;10.008;2024-01-11T11:10:39;66.37;;;32.80;;
8252;SDS011;61313;48.396;10.008;2024-01-11T11:13:06;64.03;;;32.50;;
8252;SDS011;61313;48.396;10.008;2024-01-11T11:15:35;58.50;;;32.00;;
8252;SDS011;61313;48.396;10.008;2024-01-11T11:18:02;70.60;;;36.10;;
8252;SDS011;61313;48.396;10.008;2024-01-11T11:20:28;63.47;;;30.90;;
8252;SDS011;61313;48.396;10.008;2024-01-11T11:23:07;58.73;;;34.17;;
8252;SDS011;61313;48.396;10.008;2024-01-11T11:25:34;60.73;;;32.40;;
8252;SDS011;61313;48.396;10.008;2024-01-11T11:28:00;64.27;;;32.80;;
8252;SDS011;61313;48.396;10.008;2024-01-11T11:30:32;60.40;;;32.13;;
8252;SDS011;61313;48.396;10.008;2024-01-11T11:33:11;58.60;;;34.17;;
8252;SDS011;61313;48.396;10.008;2024-01-11T11:35:42;53.53;;;31.67;;
8252;SDS011;61313;48.396;10.008;2024-01-11T11:38:07;61.27;;;32.67;;
8252;SDS011;61313;48.396;10.008;2024-01-11T11:40:36;54.27;;;30.90;;
8252;SDS011;61313;48.396;10.008;2024-01-11T11:43:04;54.97;;;32.47;;
8252;SDS011;61313;48.396;10.008;2024-01-11T11:45:30;55.37;;;33.10;;
8252;SDS011;61313;48.396;10.008;2024-01-11T11:47:56;63.87;;;34.03;;
8252;SDS011;61313;48.396;10.008;2024-01-11T11:50:22;54.40;;;33.13;;
8252;SDS011;61313;48.396;10.008;2024-01-11T11:52:53;60.27;;;33.77;;
8252;SDS011;61313;48.396;10.008;2024-01-11T11:55:22;65.13;;;35.37;;
8252;SDS011;61313;48.396;10.008;2024-01-11T11:57:49;61.70;;;34.63;;
8252;SDS011;61313;48.396;10.008;2024-01-11T12:00:15;65.67;;;34.67;;
8252;SDS011;61313;48.396;10.008;2024-01-11T12:02:41;64.90;;;37.37;;
8252;SDS011;61313;48.396;10.008;2024-01-11T12:05:07;53.40;;;32.70;;
8252;SDS011;61313;48.396;10.008;2024-01-11T12:07:33;63.93;;;35.47;;
8252;SDS011;61313;48.396;10.008;2024-01-11T12:09:58;55.50;;;32.07;;
8252;SDS011;61313;48.396;10.008;2024-01-11T12:12:24;56.70;;;32.63;;
8252;SDS011;61313;48.396;10.008;2024-01-11T12:14:50;56.90;;;32.93;;
8252;SDS011;61313;48.396;10.008;2024-01-11T12:17:15;59.17;;;34.87;;
8252;SDS011;61313;48.396;10.008;2024-01-11T12:19:41;68.57;;;35.90;;
8252;SDS011;61313;48.396;10.008;2024-01-11T12:22:07;54.23;;;33.23;;
8252;SDS011;61313;48.396;10.008;2024-01-11T12:24:32;57.57;;;33.30;;
8252;SDS011;61313;48.396;10.008;2024-01-11T12:26:59;57.87;;;35.10;;
8252;SDS011;61313;48.396;10.008;2024-01-11T12:29:25;54.20;;;31.83;;
8252;SDS011;61313;48.396;10.008;2024-01-11T12:31:50;60.43;;;33.67;;
8252;SDS011;61313;48.396;10.008;2024-01-11T12:34:16;57.47;;;34.03;;
8252;SDS011;61313;48.396;10.008;2024-01-11T12:36:42;59.60;;;33.60;;
8252;SDS011;61313;48.396;10.008;2024-01-11T12:39:08;55.53;;;33.50;;
8252;SDS011;61313;48.396;10.008;2024-01-11T12:41:35;63.47;;;33.60;;
8252;SDS011;61313;48.396;10.008;2024-01-11T12:44:01;55.33;;;35.40;;
8252;SDS011;61313;48.396;10.008;2024-01-11T12:46:27;64.40;;;34.90;;
8252;SDS011;61313;48.396;10.008;2024-01-11T12:48:53;70.40;;;36.67;;
8252;SDS011;61313;48.396;10.008;2024-01-11T12:51:19;85.40;;;38.20;;
8252;SDS011;61313;48.396;10.008;2024-01-11T12:53:45;61.03;;;32.77;;
8252;SDS011;61313;48.396;10.008;2024-01-11T12:56:11;71.83;;;37.33;;
8252;SDS011;61313;48.396;10.008;2024-01-11T12:58:40;57.10;;;34.63;;
8252;SDS011;61313;48.396;10.008;2024-01-11T13:01:06;60.57;;;35.87;;
8252;SDS011;61313;48.396;10.008;2024-01-11T13:03:33;57.70;;;34.87;;
8252;SDS011;61313;48.396;10.008;2024-01-11T13:05:59;57.70;;;34.53;;
8252;SDS011;61313;48.396;10.008;2024-01-11T13:08:25;64.77;;;35.23;;
8252;SDS011;61313;48.396;10.008;2024-01-11T13:10:52;61.93;;;36.97;;
8252;SDS011;61313;48.396;10.008;2024-01-11T13:13:17;64.53;;;36.70;;
8252;SDS011;61313;48.396;10.008;2024-01-11T13:15:43;52.37;;;32.97;;
8252;SDS011;61313;48.396;10.008;2024-01-11T13:18:09;68.10;;;35.30;;
8252;SDS011;61313;48.396;10.008;2024-01-11T13:20:35;69.30;;;36.50;;
8252;SDS011;61313;48.396;10.008;2024-01-11T13:23:13;71.23;;;36.67;;
8252;SDS011;61313;48.396;10.008;2024-01-11T13:25:46;85.73;;;36.77;;
8252;SDS011;61313;48.396;10.008;2024-01-11T13:28:15;60.37;;;36.27;;
8252;SDS011;61313;48.396;10.008;2024-01-11T13:30:41;52.27;;;34.43;;
8252;SDS011;61313;48.396;10.008;2024-01-11T13:33:08;57.83;;;34.53;;
8252;SDS011;61313;48.396;10.008;2024-01-11T13:35:35;60.23;;;33.67;;
8252;SDS011;61313;48.396;10.008;2024-01-11T13:38:02;54.47;;;33.17;;
8252;SDS011;61313;48.396;10.008;2024-01-11T13:40:28;55.10;;;34.10;;
8252;SDS011;61313;48.396;10.008;2024-01-11T13:42:54;59.83;;;35.23;;
8252;SDS011;61313;48.396;10.008;2024-01-11T13:45:21;60.03;;;36.00;;
8252;SDS011;61313;48.396;10.008;2024-01-11T13:47:47;55.63;;;33.83;;
8252;SDS011;61313;48.396;10.008;2024-01-11T13:50:12;58.20;;;36.43;;
8252;SDS011;61313;48.396;10.008;2024-01-11T13:52:37;59.73;;;34.83;;
8252;SDS011;61313;48.396;10.008;2024-01-11T13:55:03;59.17;;;35.30;;
8252;SDS011;61313;48.396;10.008;2024-01-11T13:57:29;58.97;;;35.20;;
8252;SDS011;61313;48.396;10.008;2024-01-11T13:59:55;59.47;;;34.40;;
8252;SDS011;61313;48.396;10.008;2024-01-11T14:02:20;64.27;;;33.93;;
8252;SDS011;61313;48.396;10.008;2024-01-11T14:04:46;60.60;;;36.23;;
8252;SDS011;61313;48.396;10.008;2024-01-11T14:07:11;59.77;;;36.00;;
8252;SDS011;61313;48.396;10.008;2024-01-11T14:09:37;51.90;;;34.47;;
8252;SDS011;61313;48.396;10.008;2024-01-11T14:12:02;55.83;;;35.10;;
8252;SDS011;61313;48.396;10.008;2024-01-11T14:14:28;57.03;;;36.03;;
8252;SDS011;61313;48.396;10.008;2024-01-11T14:16:53;54.93;;;33.40;;
8252;SDS011;61313;48.396;10.008;2024-01-11T14:19:19;59.47;;;37.90;;